createdAt,value
2022-08-09T00:00:12.337Z,101970.63
2022-08-09T00:00:59.139Z,101976.44
2022-08-09T00:01:55.470Z,101979.38
2022-08-09T00:02:42.778Z,101977.72
2022-08-09T00:04:00.772Z,101979.38
2022-08-09T00:04:40.231Z,101977.19
2022-08-09T00:06:15.774Z,101970.63
2022-08-09T00:06:35.339Z,101974.34
2022-08-09T00:07:22.029Z,101970.06
2022-08-09T00:08:31.469Z,101976.25
2022-08-09T00:09:17.802Z,101976.25
2022-08-09T00:10:07.797Z,101978.09
2022-08-09T00:11:00.815Z,101977.25
2022-08-09T00:12:01.516Z,101971.78
2022-08-09T00:12:52.282Z,101976.09
2022-08-09T00:13:40.755Z,101974.13
2022-08-09T00:14:36.228Z,101973.06
2022-08-09T00:15:35.372Z,101972.72
2022-08-09T00:16:38.258Z,101970.88
2022-08-09T00:18:06.135Z,101969.50
2022-08-09T00:18:35.826Z,101964.59
2022-08-09T00:19:23.031Z,101968.41
2022-08-09T00:20:12.165Z,101960.63
2022-08-09T00:20:59.098Z,101965.88
2022-08-09T00:21:56.515Z,101966.69
2022-08-09T00:22:44.895Z,101955.16
2022-08-09T00:23:57.894Z,101961.56
2022-08-09T00:24:41.651Z,101963.19
2022-08-09T00:25:32.066Z,101967.97
2022-08-09T00:26:19.613Z,101962.84
2022-08-09T00:27:16.323Z,101960.06
2022-08-09T00:28:03.924Z,101957.16
2022-08-09T00:28:52.341Z,101957.38
2022-08-09T00:30:24.864Z,101959.47
2022-08-09T00:30:45.921Z,101964.03
2022-08-09T00:31:59.920Z,101954.34
2022-08-09T00:32:40.056Z,101952.72
2022-08-09T00:33:32.612Z,101954.59
2022-08-09T00:34:20.480Z,101958.91
2022-08-09T00:35:07.649Z,101957.28
2022-08-09T00:35:55.263Z,101957.50
2022-08-09T00:36:42.473Z,101958.81
2022-08-09T00:37:32.449Z,101956.13
2022-08-09T00:38:21.393Z,101955.28
2022-08-09T00:39:16.869Z,101953.66
2022-08-09T00:40:17.476Z,101953.91
2022-08-09T00:41:07.286Z,101961.13
2022-08-09T00:44:10.075Z,101960.28
2022-08-09T00:44:17.370Z,101951.69
2022-08-09T00:44:18.856Z,101955.19
2022-08-09T00:45:16.050Z,101953.44
2022-08-09T00:46:04.081Z,101960.19
2022-08-09T00:46:57.844Z,101963.91
2022-08-09T00:47:52.430Z,101962.50
2022-08-09T00:48:42.267Z,101963.56
2022-08-09T00:49:37.175Z,101968.09
2022-08-09T00:50:25.987Z,101969.97
2022-08-09T00:51:17.096Z,101970.41
2022-08-09T00:52:15.973Z,101958.91
2022-08-09T00:53:10.435Z,101964.25
2022-08-09T00:53:58.711Z,101969.59
2022-08-09T00:54:45.971Z,101971.44
2022-08-09T00:56:05.073Z,101965.78
2022-08-09T00:56:42.056Z,101966.81
2022-08-09T00:57:34.318Z,101963.31
2022-08-09T00:58:22.182Z,101970.28
2022-08-09T00:59:14.289Z,101974.59
2022-08-09T01:00:21.309Z,101966.81
2022-08-09T01:01:20.764Z,101969.50
2022-08-09T01:02:09.528Z,101965.41
2022-08-09T01:03:17.278Z,101977.16
2022-08-09T01:04:15.413Z,101971.56
2022-08-09T01:05:14.393Z,101979.84
2022-08-09T01:06:18.403Z,101972.03
2022-08-09T01:07:16.609Z,101976.31
2022-08-09T01:08:53.382Z,101972.59
2022-08-09T01:09:58.513Z,101975.88
2022-08-09T01:11:28.354Z,101973.09
2022-08-09T01:12:42.800Z,101976.81
2022-08-09T01:13:58.530Z,101975.63
2022-08-09T01:15:16.882Z,101977.97
2022-08-09T01:16:07.100Z,101975.72
2022-08-09T01:17:04.268Z,101976.56
2022-08-09T01:18:02.442Z,101977.47
2022-08-09T01:19:02.287Z,101976.63
2022-08-09T01:20:02.840Z,101976.88
2022-08-09T01:21:28.306Z,101977.13
2022-08-09T01:23:12.441Z,101977.34
2022-08-09T01:24:39.113Z,101973.72
2022-08-09T01:25:37.426Z,101979.31
2022-08-09T01:26:47.129Z,101970.25
2022-08-09T01:27:42.537Z,101968.63
2022-08-09T01:28:30.851Z,101976.03
2022-08-09T01:29:28.338Z,101974.75
2022-08-09T01:30:35.736Z,101978.72
2022-08-09T01:32:30.624Z,101977.53
2022-08-09T01:32:51.551Z,101973.22
2022-08-09T01:33:45.634Z,101971.41
2022-08-09T01:34:35.575Z,101973.84
2022-08-09T01:35:37.265Z,101967.09
2022-08-09T01:36:28.506Z,101974.06
2022-08-09T01:37:42.756Z,101967.31
2022-08-09T01:38:29.825Z,101971.22
2022-08-09T01:39:23.081Z,101969.03
2022-08-09T01:40:23.117Z,101963.91
2022-08-09T01:41:25.769Z,101968.44
2022-08-09T01:42:15.801Z,101962.13
2022-08-09T01:43:06.548Z,101973.63
2022-08-09T01:43:57.445Z,101965.59
2022-08-09T01:44:47.168Z,101965.84
2022-08-09T01:45:44.657Z,101962.56
2022-08-09T01:46:39.620Z,101965.03
2022-08-09T01:47:27.303Z,101964.44
2022-08-09T01:48:29.458Z,101958.72
2022-08-09T01:49:19.257Z,101965.94
2022-08-09T01:50:12.380Z,101960.47
2022-08-09T01:51:02.682Z,101972.56
2022-08-09T01:51:55.572Z,101968.25
2022-08-09T01:52:44.643Z,101966.63
2022-08-09T01:53:41.657Z,101967.66
2022-08-09T01:54:36.873Z,101970.78
2022-08-09T01:55:26.031Z,101965.88
2022-08-09T01:56:14.584Z,101970.56
2022-08-09T01:57:08.504Z,101965.44
2022-08-09T01:57:56.145Z,101975.53
2022-08-09T01:58:48.980Z,101970.66
2022-08-09T01:59:51.639Z,101972.72
2022-08-09T02:00:42.001Z,101975.41
2022-08-09T02:01:58.040Z,101974.78
2022-08-09T02:02:46.687Z,101972.34
2022-08-09T02:03:36.667Z,101975.03
2022-08-09T02:04:26.792Z,101970.47
2022-08-09T02:05:18.275Z,101967.25
2022-08-09T02:06:08.300Z,101965.59
2022-08-09T02:08:34.878Z,101966.88
2022-08-09T02:08:39.897Z,101966.88
2022-08-09T02:09:42.560Z,101973.47
2022-08-09T02:10:39.036Z,101967.31
2022-08-09T02:11:42.180Z,101967.53
2022-08-09T02:12:34.984Z,101971.25
2022-08-09T02:13:40.248Z,101968.81
2022-08-09T02:14:30.548Z,101974.97
2022-08-09T02:15:20.302Z,101975.19
2022-08-09T02:16:12.484Z,101979.72
2022-08-09T02:17:15.032Z,101974.59
2022-08-09T02:18:10.702Z,101976.44
2022-08-09T02:18:59.026Z,101973.78
2022-08-09T02:19:46.096Z,101976.91
2022-08-09T02:20:38.799Z,101974.47
2022-08-09T02:21:27.569Z,101972.00
2022-08-09T02:22:34.816Z,101973.63
2022-08-09T02:23:56.588Z,101978.41
2022-08-09T02:24:51.737Z,101969.88
2022-08-09T02:25:49.450Z,101979.50
2022-08-09T02:26:42.768Z,101974.16
2022-08-09T02:27:57.443Z,101976.03
2022-08-09T02:28:43.235Z,101972.19
2022-08-09T02:29:39.146Z,101967.28
2022-08-09T02:30:32.423Z,101972.59
2022-08-09T02:31:27.125Z,101973.06
2022-08-09T02:32:23.337Z,101968.53
2022-08-09T02:33:22.949Z,101976.53
2022-08-09T02:34:38.692Z,101975.13
2022-08-09T02:36:02.632Z,101972.69
2022-08-09T02:36:39.144Z,101967.97
2022-08-09T02:37:36.561Z,101968.38
2022-08-09T02:38:29.760Z,101963.28
2022-08-09T02:39:39.719Z,101969.03
2022-08-09T02:40:30.529Z,101962.53
2022-08-09T02:41:36.233Z,101961.72
2022-08-09T02:42:33.615Z,101970.09
2022-08-09T02:43:24.345Z,101966.00
2022-08-09T02:44:29.273Z,101962.53
2022-08-09T02:45:28.762Z,101964.41
2022-08-09T02:46:17.909Z,101968.09
2022-08-09T02:47:09.807Z,101972.22
2022-08-09T02:48:06.051Z,101969.34
2022-08-09T02:49:15.665Z,101966.59
2022-08-09T02:50:13.135Z,101964.41
2022-08-09T02:51:02.615Z,101966.69
2022-08-09T02:51:55.413Z,101960.25
2022-08-09T02:52:49.634Z,101963.41
2022-08-09T02:54:01.144Z,101965.50
2022-08-09T02:54:51.553Z,101960.00
2022-08-09T02:55:57.603Z,101960.00
2022-08-09T02:56:51.671Z,101967.22
2022-08-09T02:58:00.224Z,101955.66
2022-08-09T02:58:54.345Z,101960.59
2022-08-09T03:00:11.244Z,101953.50
2022-08-09T03:00:58.486Z,101955.41
2022-08-09T03:02:05.951Z,101954.97
2022-08-09T03:02:58.626Z,101950.50
2022-08-09T03:04:18.966Z,101945.41
2022-08-09T03:04:58.855Z,101955.19
2022-08-09T03:05:50.980Z,101960.28
2022-08-09T03:06:45.479Z,101968.00
2022-08-09T03:07:35.283Z,101964.06
2022-08-09T03:08:24.155Z,101965.25
2022-08-09T03:09:14.101Z,101971.72
2022-08-09T03:10:04.096Z,101967.88
2022-08-09T03:10:55.567Z,101957.06
2022-08-09T03:12:09.906Z,101966.97
2022-08-09T03:12:52.093Z,101966.22
2022-08-09T03:13:43.941Z,101969.56
2022-08-09T03:14:47.845Z,101964.38
2022-08-09T03:15:40.649Z,101972.47
2022-08-09T03:16:45.041Z,101966.25
2022-08-09T03:17:36.247Z,101971.94
2022-08-09T03:18:30.611Z,101967.50
2022-08-09T03:19:58.593Z,101972.69
2022-08-09T03:20:29.713Z,101964.81
2022-08-09T03:21:19.255Z,101975.13
2022-08-09T03:22:25.015Z,101973.19
2022-08-09T03:23:24.728Z,101975.94
2022-08-09T03:24:12.666Z,101965.63
2022-08-09T03:25:26.314Z,101975.47
2022-08-09T03:26:30.819Z,101983.09
2022-08-09T03:27:21.597Z,101979.63
2022-08-09T03:28:11.432Z,101965.91
2022-08-09T03:28:59.472Z,101975.91
2022-08-09T03:29:57.260Z,101980.50
2022-08-09T03:30:49.616Z,101978.66
2022-08-09T03:31:42.690Z,101975.53
2022-08-09T03:32:48.801Z,101977.81
2022-08-09T03:33:53.157Z,101977.44
2022-08-09T03:34:41.582Z,101981.75
2022-08-09T03:36:11.478Z,101979.31
2022-08-09T03:36:36.721Z,101974.19
2022-08-09T03:37:55.198Z,101975.03
2022-08-09T03:38:30.677Z,101972.09
2022-08-09T03:39:17.241Z,101970.94
2022-08-09T03:40:04.966Z,101980.16
2022-08-09T03:40:51.620Z,101980.94
2022-08-09T03:41:46.036Z,101978.50
2022-08-09T03:42:35.382Z,101977.06
2022-08-09T03:43:22.053Z,101980.94
2022-08-09T03:44:09.220Z,101982.50
2022-08-09T03:44:55.707Z,101981.41
2022-08-09T03:46:05.283Z,101976.50
2022-08-09T03:46:50.226Z,101975.69
2022-08-09T03:47:39.927Z,101981.41
2022-08-09T03:48:32.407Z,101982.63
2022-08-09T03:49:24.055Z,101974.22
2022-08-09T03:50:27.902Z,101970.34
2022-08-09T03:51:55.267Z,101975.69
2022-08-09T03:52:31.015Z,101974.63
2022-08-09T03:53:20.495Z,101985.47
2022-08-09T03:54:11.044Z,101978.34
2022-08-09T03:55:03.640Z,101988.38
2022-08-09T03:55:54.676Z,101978.56
2022-08-09T03:56:42.253Z,101987.38
2022-08-09T03:57:29.425Z,101987.00
2022-08-09T03:58:21.168Z,101988.63
2022-08-09T03:59:13.613Z,101986.81
2022-08-09T04:00:05.042Z,101990.13
2022-08-09T04:00:59.789Z,101988.47
2022-08-09T04:01:49.939Z,101989.09
2022-08-09T04:02:39.824Z,101994.59
2022-08-09T04:03:46.483Z,101990.53
2022-08-09T04:04:39.674Z,101982.75
2022-08-09T04:05:32.435Z,101990.69
2022-08-09T04:06:29.464Z,101993.81
2022-08-09T04:07:16.407Z,101990.53
2022-08-09T04:08:03.117Z,101991.78
2022-08-09T04:08:49.648Z,101997.13
2022-08-09T04:09:48.234Z,101989.56
2022-08-09T04:10:36.816Z,101997.94
2022-08-09T04:11:23.520Z,101993.34
2022-08-09T04:12:12.148Z,101999.13
2022-08-09T04:13:18.635Z,101996.84
2022-08-09T04:14:52.858Z,101999.53
2022-08-09T04:15:29.629Z,101997.09
2022-08-09T04:16:22.420Z,102002.19
2022-08-09T04:17:08.969Z,102001.50
2022-08-09T04:17:57.745Z,102000.75
2022-08-09T04:18:45.830Z,102000.50
2022-08-09T04:19:50.837Z,101997.81
2022-08-09T04:20:39.621Z,102005.97
2022-08-09T04:21:27.044Z,102013.97
2022-08-09T04:22:16.016Z,102002.66
2022-08-09T04:23:03.619Z,102008.06
2022-08-09T04:23:57.729Z,102010.13
2022-08-09T04:24:44.415Z,102009.75
2022-08-09T04:25:31.044Z,102008.94
2022-08-09T04:26:20.698Z,102002.81
2022-08-09T04:27:10.203Z,102011.59
2022-08-09T04:27:59.826Z,102006.09
2022-08-09T04:28:49.185Z,102017.16
2022-08-09T04:29:36.052Z,102014.69
2022-08-09T04:30:26.186Z,102014.50
2022-08-09T04:31:15.297Z,102011.81
2022-08-09T04:32:02.765Z,102013.53
2022-08-09T04:32:52.996Z,102012.41
2022-08-09T04:33:52.157Z,102018.19
2022-08-09T04:34:54.179Z,102012.09
2022-08-09T04:35:43.893Z,102014.09
2022-08-09T04:36:32.636Z,102020.47
2022-08-09T04:37:19.286Z,102012.69
2022-08-09T04:38:06.082Z,102014.69
2022-08-09T04:38:55.065Z,102016.31
2022-08-09T04:39:41.607Z,102018.19
2022-08-09T04:40:56.447Z,102014.69
2022-08-09T04:41:44.100Z,102023.53
2022-08-09T04:42:33.993Z,102020.63
2022-08-09T04:43:22.153Z,102012.63
2022-08-09T04:44:12.446Z,102017.53
2022-08-09T04:45:02.131Z,102018.81
2022-08-09T04:45:53.943Z,102018.72
2022-08-09T04:46:57.203Z,102017.53
2022-08-09T04:48:00.348Z,102029.00
2022-08-09T04:48:58.445Z,102025.53
2022-08-09T04:49:54.327Z,102025.31
2022-08-09T04:50:42.675Z,102026.75
2022-08-09T04:51:29.201Z,102029.41
2022-08-09T04:52:26.152Z,102026.13
2022-08-09T04:53:15.080Z,102021.59
2022-08-09T04:54:03.088Z,102019.97
2022-08-09T04:54:51.626Z,102027.09
2022-08-09T04:55:41.317Z,102024.41
2022-08-09T04:56:37.993Z,102029.88
2022-08-09T04:57:25.703Z,102030.38
2022-08-09T04:58:13.430Z,102035.69
2022-08-09T04:59:03.733Z,102032.81
2022-08-09T04:59:55.970Z,102034.38
2022-08-09T05:00:43.037Z,102035.41
2022-08-09T05:01:29.670Z,102036.44
2022-08-09T05:02:19.394Z,102031.94
2022-08-09T05:03:40.682Z,102034.38
2022-08-09T05:04:15.129Z,102034.53
2022-08-09T05:05:04.259Z,102026.75
2022-08-09T05:06:04.524Z,102031.28
2022-08-09T05:06:53.859Z,102036.56
2022-08-09T05:07:42.430Z,102036.41
2022-08-09T05:08:34.649Z,102034.34
2022-08-09T05:09:21.435Z,102040.00
2022-08-09T05:10:08.924Z,102031.16
2022-08-09T05:10:56.794Z,102037.50
2022-08-09T05:11:47.831Z,102029.50
2022-08-09T05:12:35.351Z,102033.81
2022-08-09T05:13:21.843Z,102035.22
2022-08-09T05:14:14.668Z,102029.47
2022-08-09T05:15:03.348Z,102027.97
2022-08-09T05:15:56.510Z,102038.00
2022-08-09T05:16:59.392Z,102027.56
2022-08-09T05:18:39.450Z,102030.00
2022-08-09T05:18:58.415Z,102032.44
2022-08-09T05:19:46.567Z,102030.56
2022-08-09T05:20:33.529Z,102028.88
2022-08-09T05:21:24.251Z,102024.72
2022-08-09T05:22:33.392Z,102036.81
2022-08-09T05:23:54.337Z,102026.75
2022-08-09T05:24:27.093Z,102026.75
2022-08-09T05:25:15.227Z,102026.66
2022-08-09T05:26:01.786Z,102039.78
2022-08-09T05:26:49.058Z,102036.22
2022-08-09T05:27:45.460Z,102032.75
2022-08-09T05:28:34.514Z,102031.72
2022-08-09T05:29:24.481Z,102026.00
2022-08-09T05:30:19.538Z,102033.34
2022-08-09T05:31:09.334Z,102021.63
2022-08-09T05:32:00.125Z,102032.91
2022-08-09T05:32:50.960Z,102030.59
2022-08-09T05:33:42.599Z,102027.25
2022-08-09T05:34:32.515Z,102036.09
2022-08-09T05:35:21.946Z,102032.28
2022-08-09T05:36:08.739Z,102036.97
2022-08-09T05:36:56.408Z,102032.44
2022-08-09T05:37:47.614Z,102043.94
2022-08-09T05:38:34.385Z,102036.06
2022-08-09T05:39:29.524Z,102036.94
2022-08-09T05:40:18.344Z,102038.88
2022-08-09T05:41:05.079Z,102034.13
2022-08-09T05:41:55.200Z,102041.69
2022-08-09T05:42:41.904Z,102032.03
2022-08-09T05:43:31.770Z,102036.25
2022-08-09T05:44:22.261Z,102035.47
2022-08-09T05:45:15.793Z,102032.13
2022-08-09T05:46:03.049Z,102040.88
2022-08-09T05:46:49.589Z,102039.72
2022-08-09T05:47:36.065Z,102046.03
2022-08-09T05:48:37.337Z,102048.81
2022-08-09T05:49:33.946Z,102038.91
2022-08-09T05:50:36.107Z,102043.69
2022-08-09T05:51:42.829Z,102041.38
2022-08-09T05:52:33.074Z,102039.75
2022-08-09T05:53:32.462Z,102044.41
2022-08-09T05:54:20.510Z,102035.34
2022-08-09T05:55:08.685Z,102033.72
2022-08-09T05:55:55.536Z,102040.94
2022-08-09T05:56:54.992Z,102043.00
2022-08-09T05:57:51.191Z,102034.75
2022-08-09T05:58:42.677Z,102036.75
2022-08-09T05:59:31.002Z,102041.84
2022-08-09T06:00:17.627Z,102043.34
2022-08-09T06:01:04.072Z,102046.75
2022-08-09T06:01:53.326Z,102046.84
2022-08-09T06:02:46.682Z,102050.38
2022-08-09T06:03:43.660Z,102049.44
2022-08-09T06:04:34.790Z,102049.31
2022-08-09T06:05:31.067Z,102049.88
2022-08-09T06:06:29.091Z,102055.09
2022-08-09T06:07:21.506Z,102053.38
2022-08-09T06:08:11.141Z,102057.44
2022-08-09T06:08:57.913Z,102054.06
2022-08-09T06:10:01.393Z,102053.22
2022-08-09T06:10:50.492Z,102054.50
2022-08-09T06:11:41.171Z,102057.28
2022-08-09T06:12:43.599Z,102056.44
2022-08-09T06:13:33.993Z,102049.78
2022-08-09T06:14:20.889Z,102054.66
2022-08-09T06:15:10.178Z,102051.97
2022-08-09T06:15:56.703Z,102049.38
2022-08-09T06:16:43.613Z,102058.34
2022-08-09T06:17:40.788Z,102056.00
2022-08-09T06:18:27.324Z,102061.13
2022-08-09T06:19:14.761Z,102059.38
2022-08-09T06:20:01.198Z,102055.28
2022-08-09T06:20:54.303Z,102060.16
2022-08-09T06:21:51.462Z,102053.84
2022-08-09T06:22:45.727Z,102052.78
2022-08-09T06:23:58.382Z,102065.38
2022-08-09T06:24:39.692Z,102065.38
2022-08-09T06:25:26.908Z,102055.47
2022-08-09T06:26:15.074Z,102063.38
2022-08-09T06:27:07.888Z,102067.94
2022-08-09T06:27:54.333Z,102062.25
2022-08-09T06:28:43.219Z,102067.84
2022-08-09T06:29:30.840Z,102069.84
2022-08-09T06:30:34.568Z,102071.47
2022-08-09T06:31:30.598Z,102064.94
2022-08-09T06:32:59.023Z,102063.91
2022-08-09T06:33:40.946Z,102064.63
2022-08-09T06:34:29.813Z,102075.22
2022-08-09T06:35:17.358Z,102069.94
2022-08-09T06:36:04.568Z,102073.75
2022-08-09T06:36:57.219Z,102067.91
2022-08-09T06:37:53.073Z,102066.34
2022-08-09T06:38:51.984Z,102068.06
2022-08-09T06:39:48.316Z,102062.13
2022-08-09T06:40:44.771Z,102057.81
2022-08-09T06:42:08.143Z,102065.53
2022-08-09T06:42:45.107Z,102073.78
2022-08-09T06:43:34.216Z,102065.63
2022-08-09T06:44:21.361Z,102068.25
2022-08-09T06:46:05.040Z,102065.31
2022-08-09T06:46:39.054Z,102068.53
2022-08-09T06:47:23.753Z,102068.53
2022-08-09T06:48:10.737Z,102066.34
2022-08-09T06:49:03.861Z,102067.66
2022-08-09T06:50:13.526Z,102068.41
2022-08-09T06:50:59.991Z,102072.47
2022-08-09T06:51:46.507Z,102068.56
2022-08-09T06:52:34.213Z,102072.44
2022-08-09T06:53:21.574Z,102061.72
2022-08-09T06:54:14.673Z,102072.44
2022-08-09T06:55:01.617Z,102073.31
2022-08-09T06:55:56.657Z,102071.22
2022-08-09T06:56:45.355Z,102070.09
2022-08-09T06:58:02.035Z,102072.53
2022-08-09T07:00:50.386Z,102076.19
2022-08-09T07:00:54.636Z,102068.47
2022-08-09T07:00:58.679Z,102076.75
2022-08-09T07:01:54.526Z,102075.84
2022-08-09T07:02:45.809Z,102079.06
2022-08-09T07:03:39.506Z,102076.38
2022-08-09T07:04:38.273Z,102076.38
2022-08-09T07:05:58.387Z,102082.06
2022-08-09T07:06:32.598Z,102078.53
2022-08-09T07:07:59.014Z,102086.13
2022-08-09T07:08:27.655Z,102076.50
2022-08-09T07:09:55.497Z,102093.53
2022-08-09T07:10:31.202Z,102086.53
2022-08-09T07:11:25.207Z,102089.81
2022-08-09T07:12:13.737Z,102083.91
2022-08-09T07:13:05.409Z,102086.28
2022-08-09T07:14:14.284Z,102091.22
2022-08-09T07:15:03.360Z,102092.72
2022-08-09T07:16:41.577Z,102095.78
2022-08-09T07:17:16.867Z,102095.84
2022-08-09T07:18:04.441Z,102084.09
2022-08-09T07:18:56.961Z,102089.78
2022-08-09T07:19:43.403Z,102086.31
2022-08-09T07:20:34.534Z,102086.09
2022-08-09T07:21:26.284Z,102086.41
2022-08-09T07:22:18.249Z,102079.41
2022-08-09T07:23:04.803Z,102080.72
2022-08-09T07:24:06.517Z,102079.66
2022-08-09T07:24:52.945Z,102087.53
2022-08-09T07:25:43.402Z,102083.97
2022-08-09T07:26:30.128Z,102076.06
2022-08-09T07:27:33.031Z,102083.72
2022-08-09T07:28:26.203Z,102079.44
2022-08-09T07:29:14.711Z,102078.16
2022-08-09T07:30:02.670Z,102071.25
2022-08-09T07:30:50.089Z,102074.81
2022-08-09T07:31:38.346Z,102074.81
2022-08-09T07:32:32.174Z,102075.91
2022-08-09T07:33:20.253Z,102074.59
2022-08-09T07:34:08.162Z,102072.75
2022-08-09T07:35:11.453Z,102076.09
2022-08-09T07:35:58.411Z,102079.75
2022-08-09T07:36:47.164Z,102065.47
2022-08-09T07:37:42.926Z,102068.22
2022-08-09T07:38:31.335Z,102072.06
2022-08-09T07:39:20.633Z,102078.53
2022-08-09T07:40:26.747Z,102073.72
2022-08-09T07:41:14.517Z,102075.38
2022-08-09T07:42:03.496Z,102073.00
2022-08-09T07:42:58.455Z,102073.06
2022-08-09T07:43:56.064Z,102061.69
2022-08-09T07:44:51.921Z,102074.72
2022-08-09T07:45:40.928Z,102070.72
2022-08-09T07:46:27.927Z,102067.72
2022-08-09T07:47:16.394Z,102068.78
2022-08-09T07:48:04.420Z,102073.19
2022-08-09T07:48:58.892Z,102068.38
2022-08-09T07:50:04.403Z,102068.38
2022-08-09T07:50:53.054Z,102072.44
2022-08-09T07:52:03.636Z,102065.97
2022-08-09T07:53:00.896Z,102065.19
2022-08-09T07:54:06.993Z,102067.66
2022-08-09T07:54:54.413Z,102063.63
2022-08-09T07:56:03.256Z,102063.13
2022-08-09T07:56:49.530Z,102070.22
2022-08-09T07:57:36.802Z,102063.13
2022-08-09T07:58:26.146Z,102063.97
2022-08-09T07:59:24.925Z,102067.75
2022-08-09T08:00:36.161Z,102065.59
2022-08-09T08:01:28.451Z,102064.25
2022-08-09T08:02:23.939Z,102059.41
2022-08-09T08:03:13.002Z,102058.06
2022-08-09T08:04:10.449Z,102069.69
2022-08-09T08:04:57.349Z,102067.56
2022-08-09T08:05:57.684Z,102074.03
2022-08-09T08:06:45.443Z,102063.75
2022-08-09T08:08:45.159Z,102067.00
2022-08-09T08:09:03.285Z,102072.66
2022-08-09T08:10:04.594Z,102071.31
2022-08-09T08:11:15.173Z,102059.69
2022-08-09T08:12:09.762Z,102067.00
2022-08-09T08:12:58.282Z,102069.19
2022-08-09T08:13:57.355Z,102069.72
2022-08-09T08:14:44.167Z,102081.59
2022-08-09T08:15:35.522Z,102074.56
2022-08-09T08:16:31.697Z,102070.78
2022-08-09T08:17:35.362Z,102068.88
2022-08-09T08:18:25.994Z,102064.28
2022-08-09T08:19:13.427Z,102075.63
2022-08-09T08:20:01.984Z,102071.84
2022-08-09T08:20:48.583Z,102071.03
2022-08-09T08:21:39.557Z,102070.25
2022-08-09T08:22:28.627Z,102061.31
2022-08-09T08:23:17.803Z,102061.84
2022-08-09T08:24:11.477Z,102073.75
2022-08-09T08:24:59.092Z,102078.25
2022-08-09T08:25:50.256Z,102074.69
2022-08-09T08:26:47.433Z,102077.69
2022-08-09T08:27:43.346Z,102076.84
2022-08-09T08:28:32.832Z,102073.28
2022-08-09T08:29:27.759Z,102079.53
2022-08-09T08:30:17.948Z,102072.47
2022-08-09T08:31:14.324Z,102074.09
2022-08-09T08:32:03.903Z,102070.00
2022-08-09T08:32:54.089Z,102075.69
2022-08-09T08:33:52.219Z,102077.00
2022-08-09T08:34:39.913Z,102076.22
2022-08-09T08:35:32.061Z,102080.31
2022-08-09T08:36:34.511Z,102076.00
2022-08-09T08:37:41.200Z,102076.00
2022-08-09T08:38:38.362Z,102075.69
2022-08-09T08:39:27.089Z,102078.38
2022-08-09T08:40:14.743Z,102077.19
2022-08-09T08:41:05.638Z,102078.50
2022-08-09T08:41:53.322Z,102076.88
2022-08-09T08:42:43.365Z,102073.91
2022-08-09T08:43:34.190Z,102075.69
2022-08-09T08:44:28.863Z,102074.63
2022-08-09T08:45:37.449Z,102083.28
2022-08-09T08:46:59.784Z,102081.56
2022-08-09T08:47:44.645Z,102076.47
2022-08-09T08:48:32.900Z,102072.16
2022-08-09T08:49:21.426Z,102069.66
2022-08-09T08:50:09.147Z,102069.69
2022-08-09T08:50:59.746Z,102070.19
2022-08-09T08:52:01.840Z,102071.53
2022-08-09T08:52:58.357Z,102061.16
2022-08-09T08:54:03.665Z,102056.53
2022-08-09T08:54:53.888Z,102060.28
2022-08-09T08:55:41.775Z,102061.34
2022-08-09T08:56:28.956Z,102061.94
2022-08-09T08:57:21.300Z,102055.97
2022-08-09T08:58:10.666Z,102053.28
2022-08-09T08:58:57.357Z,102054.59
2022-08-09T08:59:46.841Z,102059.16
2022-08-09T09:00:34.950Z,102060.25
2022-08-09T09:01:24.987Z,102061.78
2022-08-09T09:02:30.889Z,102060.94
2022-08-09T09:03:25.278Z,102063.34
2022-08-09T09:04:37.789Z,102064.53
2022-08-09T09:06:03.290Z,102064.72
2022-08-09T09:06:42.890Z,102062.56
2022-08-09T09:07:36.760Z,102068.22
2022-08-09T09:08:29.818Z,102063.66
2022-08-09T09:09:58.171Z,102068.28
2022-08-09T09:10:29.705Z,102065.56
2022-08-09T09:11:19.450Z,102062.28
2022-08-09T09:12:12.246Z,102057.03
2022-08-09T09:13:09.139Z,102065.53
2022-08-09T09:14:00.358Z,102070.88
2022-08-09T09:14:48.346Z,102067.78
2022-08-09T09:15:35.275Z,102069.03
2022-08-09T09:16:31.183Z,102066.50
2022-08-09T09:17:18.870Z,102067.72
2022-08-09T09:18:13.076Z,102073.59
2022-08-09T09:19:36.887Z,102074.41
2022-08-09T09:20:15.445Z,102075.16
2022-08-09T09:21:02.216Z,102076.63
2022-08-09T09:22:03.634Z,102071.69
2022-08-09T09:23:01.917Z,102070.00
2022-08-09T09:23:58.503Z,102072.13
2022-08-09T09:25:00.767Z,102070.44
2022-08-09T09:26:11.829Z,102075.31
2022-08-09T09:27:01.242Z,102070.09
2022-08-09T09:28:05.841Z,102076.09
2022-08-09T09:29:03.556Z,102075.31
2022-08-09T09:30:12.331Z,102069.81
2022-08-09T09:31:01.542Z,102073.84
2022-08-09T09:32:06.475Z,102071.06
2022-08-09T09:33:16.115Z,102063.72
2022-08-09T09:34:18.102Z,102073.47
2022-08-09T09:35:12.973Z,102071.56
2022-08-09T09:36:11.650Z,102063.84
2022-08-09T09:37:07.241Z,102067.69
2022-08-09T09:38:01.454Z,102067.47
2022-08-09T09:38:57.155Z,102067.88
2022-08-09T09:39:55.646Z,102067.09
2022-08-09T09:40:46.341Z,102068.81
2022-08-09T09:41:48.741Z,102062.03
2022-08-09T09:42:36.372Z,102063.13
2022-08-09T09:43:24.074Z,102063.72
2022-08-09T09:44:15.510Z,102067.25
2022-08-09T09:45:14.289Z,102061.13
2022-08-09T09:47:21.579Z,102067.41
2022-08-09T09:48:08.587Z,102071.13
2022-08-09T09:48:58.190Z,102072.03
2022-08-09T09:50:13.962Z,102069.19
2022-08-09T09:50:59.734Z,102064.56
2022-08-09T09:51:51.412Z,102063.94
2022-08-09T09:52:53.676Z,102070.34
2022-08-09T09:53:57.339Z,102061.31
2022-08-09T09:54:48.570Z,102065.25
2022-08-09T09:56:03.929Z,102069.59
2022-08-09T09:58:00.208Z,102062.28
2022-08-09T09:58:18.251Z,102066.03
2022-08-09T09:59:09.002Z,102067.16
2022-08-09T09:59:56.184Z,102058.72
2022-08-09T10:00:54.247Z,102050.63
2022-08-09T10:01:47.761Z,102048.53
2022-08-09T10:02:45.898Z,102052.88
2022-08-09T10:03:42.746Z,102054.28
2022-08-09T10:04:30.736Z,102054.91
2022-08-09T10:05:21.716Z,102055.28
2022-08-09T10:06:14.115Z,102054.59
2022-08-09T10:07:03.454Z,102056.94
2022-08-09T10:08:26.664Z,102061.59
2022-08-09T10:09:23.159Z,102050.16
2022-08-09T10:10:11.094Z,102068.16
2022-08-09T10:10:58.452Z,102065.13
2022-08-09T10:11:59.804Z,102055.16
2022-08-09T10:12:53.757Z,102066.72
2022-08-09T10:13:45.106Z,102061.19
2022-08-09T10:14:33.869Z,102061.19
2022-08-09T10:15:50.832Z,102060.91
2022-08-09T10:16:57.132Z,102057.56
2022-08-09T10:17:56.268Z,102047.13
2022-08-09T10:18:54.520Z,102052.13
2022-08-09T10:19:41.216Z,102051.81
2022-08-09T10:20:37.351Z,102055.16
2022-08-09T10:21:32.979Z,102054.34
2022-08-09T10:22:33.695Z,102050.81
2022-08-09T10:23:22.720Z,102055.94
2022-08-09T10:24:16.037Z,102048.59
2022-08-09T10:25:14.646Z,102056.75
2022-08-09T10:26:07.956Z,102055.06
2022-08-09T10:26:58.846Z,102056.38